KBGR 170353Z 00000KT 10SM CLR 16/13 A3008 RMK AO2 SLP184 T01560128